Terminal Aerodrome Forecast
Issued by NWS

Home | Current Version | Previous Version | Text Only | Print | Product List | Glossary On
Versions: 1 2 3 4 5 6 7 8 9 10 11 12 13 14 15 16 17 18 19 20 21 22 23 24 25 26 27 28 29 30
000
FTUS44 KHGX 311521 AAC
TAFLBX
TAF AMD
KLBX 311521Z 3115/0112 10006KT P6SM VCTS SCT040CB BKN250
      TEMPO 3115/3118 VRB15G25KT 5SM -TSRA BR
     FM312200 16008KT P6SM BKN250
     FM010100 VRB03KT P6SM SCT250=

USA.gov is the U.S. government's official web portal to all federal, state and local government web resources and services.